createdAt,value
2023-05-04T00:01:03.883Z,20.25
2023-05-04T00:03:31.485Z,18.73
2023-05-04T00:05:59.192Z,21.92
2023-05-04T00:08:26.895Z,21.63
2023-05-04T00:10:55.772Z,20.02
2023-05-04T00:13:23.610Z,20.50
2023-05-04T00:15:51.233Z,17.90
2023-05-04T00:18:19.114Z,18.85
2023-05-04T00:20:47.152Z,19.58
2023-05-04T00:23:14.729Z,20.10
2023-05-04T00:25:42.537Z,19.10
2023-05-04T00:28:10.418Z,19.83
2023-05-04T00:30:38.195Z,19.77
2023-05-04T00:33:06.018Z,20.35
2023-05-04T00:35:33.574Z,21.98
2023-05-04T00:38:04.906Z,21.05
2023-05-04T00:40:32.524Z,21.02
2023-05-04T00:43:00.104Z,21.85
2023-05-04T00:45:27.874Z,19.85
2023-05-04T00:47:56.241Z,19.67
2023-05-04T00:50:23.957Z,20.95
2023-05-04T00:52:52.106Z,19.38
2023-05-04T00:55:20.584Z,20.55
2023-05-04T00:57:49.249Z,20.50
2023-05-04T01:00:17.240Z,21.75
2023-05-04T01:02:44.950Z,23.33
2023-05-04T01:05:12.678Z,21.15
2023-05-04T01:07:52.864Z,20.17
2023-05-04T01:10:27.957Z,22.23
2023-05-04T01:12:59.214Z,22.23
2023-05-04T01:15:27.982Z,21.88
2023-05-04T01:17:56.716Z,21.95
2023-05-04T01:20:24.307Z,25.30
2023-05-04T01:22:52.103Z,23.15
2023-05-04T01:25:21.130Z,24.05
2023-05-04T01:28:00.541Z,22.15
2023-05-04T01:30:31.239Z,23.60
2023-05-04T01:32:59.543Z,22.42
2023-05-04T01:35:27.240Z,22.42
2023-05-04T01:37:54.786Z,20.88
2023-05-04T01:40:22.414Z,23.00
2023-05-04T01:42:50.568Z,20.75
2023-05-04T01:45:18.133Z,21.25
2023-05-04T01:47:45.914Z,21.10
2023-05-04T01:50:13.600Z,21.60
2023-05-04T01:52:41.199Z,20.58
2023-05-04T01:55:08.894Z,19.48
2023-05-04T01:57:36.688Z,23.08
2023-05-04T02:00:04.652Z,19.65
2023-05-04T02:02:43.402Z,21.00
2023-05-04T02:05:13.640Z,22.90
2023-05-04T02:07:41.233Z,22.58
2023-05-04T02:10:09.172Z,20.67
2023-05-04T02:12:36.776Z,20.20
2023-05-04T02:15:04.431Z,19.92
2023-05-04T02:17:32.090Z,21.90
2023-05-04T02:19:59.618Z,20.00
2023-05-04T02:22:27.216Z,20.75
2023-05-04T02:24:54.721Z,20.30
2023-05-04T02:27:22.215Z,21.58
2023-05-04T02:29:49.871Z,20.27
2023-05-04T02:32:17.434Z,21.48
2023-05-04T02:34:45.010Z,23.20
2023-05-04T02:37:12.956Z,22.60
2023-05-04T02:39:40.570Z,21.48
2023-05-04T02:42:08.130Z,23.63
2023-05-04T02:44:35.659Z,21.23
2023-05-04T02:47:03.238Z,21.80
2023-05-04T02:49:31.183Z,20.50
2023-05-04T02:51:58.726Z,19.85
2023-05-04T02:54:26.235Z,20.73
2023-05-04T02:56:53.806Z,21.27
2023-05-04T02:59:21.345Z,22.00
2023-05-04T03:01:49.047Z,23.95
2023-05-04T03:04:17.004Z,23.42
2023-05-04T03:06:44.630Z,22.90
2023-05-04T03:09:12.437Z,24.33
2023-05-04T03:11:39.960Z,24.35
2023-05-04T03:14:07.742Z,22.08
2023-05-04T03:16:35.525Z,20.45
2023-05-04T03:19:03.719Z,22.63
2023-05-04T03:21:31.329Z,23.95
2023-05-04T03:24:00.041Z,23.30
2023-05-04T03:26:28.323Z,22.77
2023-05-04T03:28:55.921Z,23.23
2023-05-04T03:31:23.742Z,22.65
2023-05-04T03:33:53.290Z,20.35
2023-05-04T03:36:22.179Z,24.08
2023-05-04T03:38:50.371Z,24.83
2023-05-04T03:41:18.471Z,23.48
2023-05-04T03:43:46.191Z,25.92
2023-05-04T03:46:13.911Z,21.77
2023-05-04T03:48:41.994Z,24.75
2023-05-04T03:53:44.565Z,21.42
2023-05-04T03:56:13.491Z,21.92
2023-05-04T03:58:41.580Z,24.30
2023-05-04T04:01:09.158Z,22.48
2023-05-04T04:03:36.854Z,22.58
2023-05-04T04:06:05.302Z,22.95
2023-05-04T04:08:32.837Z,26.13
2023-05-04T04:11:00.490Z,22.90
2023-05-04T04:13:28.358Z,23.40
2023-05-04T04:15:56.028Z,24.17
2023-05-04T04:18:24.320Z,26.35
2023-05-04T04:20:52.140Z,24.75
2023-05-04T04:23:19.736Z,23.98
2023-05-04T04:25:47.276Z,26.35
2023-05-04T04:28:15.058Z,25.75
2023-05-04T04:30:42.684Z,24.75
2023-05-04T04:33:10.357Z,24.75
2023-05-04T04:35:37.990Z,23.40
2023-05-04T04:38:05.526Z,23.92
2023-05-04T04:40:33.142Z,23.77
2023-05-04T04:43:00.718Z,69.63
2023-05-04T04:45:28.603Z,35.75
2023-05-04T04:47:56.433Z,23.85
2023-05-04T04:50:24.113Z,23.85
2023-05-04T04:52:52.466Z,23.30
2023-05-04T04:55:20.279Z,25.33
2023-05-04T04:57:47.924Z,23.35
2023-05-04T05:00:15.716Z,24.38
2023-05-04T05:02:43.653Z,34.45
2023-05-04T05:05:12.839Z,22.40
2023-05-04T05:07:40.450Z,22.27
2023-05-04T05:10:08.543Z,25.60
2023-05-04T05:12:36.318Z,21.30
2023-05-04T05:15:04.491Z,21.08
2023-05-04T05:17:32.167Z,19.83
2023-05-04T05:19:59.837Z,23.27
2023-05-04T05:22:27.915Z,19.63
2023-05-04T05:24:55.430Z,20.75
2023-05-04T05:27:23.017Z,19.58
2023-05-04T05:29:50.596Z,19.92
2023-05-04T05:32:18.145Z,20.90
2023-05-04T05:34:45.665Z,19.08
2023-05-04T05:37:13.210Z,17.63
2023-05-04T05:39:40.869Z,18.45
2023-05-04T05:42:08.690Z,18.85
2023-05-04T05:44:39.217Z,15.48
2023-05-04T05:47:06.815Z,16.52
2023-05-04T05:49:34.987Z,19.02
2023-05-04T05:52:02.582Z,14.00
2023-05-04T05:54:31.813Z,14.57
2023-05-04T05:56:59.575Z,14.57
2023-05-04T05:59:27.091Z,15.38
2023-05-04T06:01:54.758Z,17.63
2023-05-04T06:04:22.484Z,16.95
2023-05-04T06:06:50.103Z,14.38
2023-05-04T06:09:17.632Z,17.55
2023-05-04T06:11:45.562Z,15.10
2023-05-04T06:14:13.147Z,13.10
2023-05-04T06:16:40.862Z,15.13
2023-05-04T06:19:08.541Z,14.82
2023-05-04T06:21:36.110Z,15.40
2023-05-04T06:24:03.721Z,14.30
2023-05-04T06:26:31.290Z,13.02
2023-05-04T06:28:59.018Z,13.77
2023-05-04T06:31:26.706Z,18.17
2023-05-04T06:33:54.300Z,12.98
2023-05-04T06:36:21.845Z,14.20
2023-05-04T06:38:49.336Z,15.05
2023-05-04T06:41:16.836Z,14.65
2023-05-04T06:43:44.446Z,15.68
2023-05-04T06:46:12.091Z,16.13
2023-05-04T06:48:39.615Z,15.70
2023-05-04T06:51:07.154Z,13.90
2023-05-04T06:53:34.665Z,14.77
2023-05-04T06:56:02.608Z,12.30
2023-05-04T06:58:30.129Z,13.32
2023-05-04T07:00:57.719Z,10.82
2023-05-04T07:03:25.279Z,10.68
2023-05-04T07:05:52.843Z,10.05
2023-05-04T07:08:20.409Z,11.18
2023-05-04T07:10:47.960Z,9.73
2023-05-04T07:13:15.628Z,10.90
2023-05-04T07:15:43.180Z,10.35
2023-05-04T07:18:11.035Z,14.45
2023-05-04T07:20:38.756Z,10.52
2023-05-04T07:23:06.263Z,9.50
2023-05-04T07:25:34.563Z,14.50
2023-05-04T07:28:02.656Z,9.23
2023-05-04T07:30:30.299Z,8.48
2023-05-04T07:32:59.062Z,9.32
2023-05-04T07:35:26.994Z,10.05
2023-05-04T07:37:54.855Z,11.75
2023-05-04T07:40:22.501Z,10.68
2023-05-04T07:42:49.981Z,10.82
2023-05-04T07:45:17.649Z,8.07
2023-05-04T07:47:45.266Z,9.88
2023-05-04T07:50:13.585Z,10.55
2023-05-04T07:52:41.164Z,8.18
2023-05-04T07:55:08.943Z,7.95
2023-05-04T07:57:37.743Z,10.55
2023-05-04T08:00:05.948Z,7.75
2023-05-04T08:02:41.120Z,8.23
2023-05-04T08:05:08.943Z,6.55
2023-05-04T08:07:38.789Z,7.57
2023-05-04T08:10:06.700Z,6.68
2023-05-04T08:12:34.376Z,9.75
2023-05-04T08:15:02.029Z,10.65
2023-05-04T08:17:29.810Z,6.60
2023-05-04T08:19:57.428Z,8.90
2023-05-04T08:22:25.069Z,7.13
2023-05-04T08:24:52.598Z,7.40
2023-05-04T08:27:20.223Z,5.60
2023-05-04T08:29:47.705Z,7.65
2023-05-04T08:32:15.194Z,4.15
2023-05-04T08:34:42.747Z,6.43
2023-05-04T08:37:10.329Z,6.60
2023-05-04T08:39:39.437Z,5.25
2023-05-04T08:42:08.913Z,4.70
2023-05-04T08:44:36.525Z,8.63
2023-05-04T08:47:04.673Z,4.88
2023-05-04T08:49:32.830Z,5.63
2023-05-04T08:52:01.536Z,6.43
2023-05-04T08:54:29.609Z,7.28
2023-05-04T08:56:57.439Z,4.78
2023-05-04T08:59:25.895Z,5.22
2023-05-04T09:01:55.532Z,6.68
2023-05-04T09:04:23.403Z,6.38
2023-05-04T09:06:51.785Z,5.30
2023-05-04T09:09:19.488Z,6.13
2023-05-04T09:11:47.909Z,5.20
2023-05-04T09:14:15.893Z,6.25
2023-05-04T09:16:43.461Z,6.13
2023-05-04T09:19:21.228Z,5.35
2023-05-04T09:21:51.344Z,6.20
2023-05-04T09:24:28.709Z,7.18
2023-05-04T09:26:56.473Z,4.47
2023-05-04T09:29:25.638Z,5.80
2023-05-04T09:31:53.708Z,6.97
2023-05-04T09:34:22.186Z,5.10
2023-05-04T09:37:02.394Z,4.95
2023-05-04T09:39:30.450Z,5.40
2023-05-04T09:41:57.988Z,6.93
2023-05-04T09:44:29.487Z,6.53
2023-05-04T09:49:34.702Z,6.45
2023-05-04T09:52:03.208Z,7.50
2023-05-04T09:54:34.631Z,5.97
2023-05-04T09:57:11.581Z,6.22
2023-05-04T09:59:39.794Z,6.07
2023-05-04T10:02:18.602Z,6.93
2023-05-04T10:04:50.953Z,5.53
2023-05-04T10:07:18.833Z,7.60
2023-05-04T10:09:47.510Z,6.30
2023-05-04T10:12:15.045Z,7.97
2023-05-04T10:14:46.901Z,5.45
2023-05-04T10:17:20.731Z,6.53
2023-05-04T10:19:48.220Z,6.82
2023-05-04T10:22:39.327Z,5.15
2023-05-04T10:25:07.310Z,8.63
2023-05-04T10:27:44.846Z,4.95
2023-05-04T10:30:14.211Z,6.25
2023-05-04T10:32:41.864Z,5.03
2023-05-04T10:35:10.217Z,5.72
2023-05-04T10:37:38.146Z,5.55
2023-05-04T10:40:07.824Z,8.55
2023-05-04T10:42:45.114Z,5.18
2023-05-04T10:45:13.601Z,5.47
2023-05-04T10:47:42.272Z,4.88
2023-05-04T10:50:15.869Z,6.75
2023-05-04T10:52:47.333Z,6.00
2023-05-04T10:55:15.244Z,5.28
2023-05-04T10:57:50.049Z,6.75
2023-05-04T11:00:18.191Z,6.80
2023-05-04T11:02:46.958Z,5.43
2023-05-04T11:05:18.153Z,3.97
2023-05-04T11:07:46.113Z,5.07
2023-05-04T11:10:24.308Z,7.38
2023-05-04T11:12:52.405Z,5.55
2023-05-04T11:15:20.062Z,7.82
2023-05-04T11:17:52.164Z,5.22
2023-05-04T11:20:26.687Z,7.13
2023-05-04T11:22:54.695Z,4.50
2023-05-04T11:25:29.166Z,6.13
2023-05-04T11:27:58.048Z,5.22
2023-05-04T11:30:35.198Z,4.45
2023-05-04T11:33:05.114Z,4.60
2023-05-04T11:35:32.767Z,4.80
2023-05-04T11:38:00.337Z,5.95
2023-05-04T11:40:28.044Z,4.68
2023-05-04T11:42:57.218Z,4.63
2023-05-04T11:45:29.434Z,5.57
2023-05-04T11:47:57.496Z,5.57
2023-05-04T11:50:26.068Z,5.38
2023-05-04T11:53:04.277Z,4.32
2023-05-04T11:55:32.298Z,5.15
2023-05-04T11:58:03.937Z,5.95
2023-05-04T12:00:37.201Z,5.28
2023-05-04T12:03:08.749Z,5.40
2023-05-04T12:05:37.508Z,5.20
2023-05-04T12:08:07.182Z,5.35
2023-05-04T12:10:35.170Z,6.40
2023-05-04T12:13:03.016Z,5.57
2023-05-04T12:15:37.337Z,5.93
2023-05-04T12:18:05.036Z,6.18
2023-05-04T12:20:33.389Z,6.00
2023-05-04T12:23:06.771Z,4.68
2023-05-04T12:25:34.529Z,4.40
2023-05-04T12:28:04.681Z,4.13
2023-05-04T12:30:32.330Z,7.22
2023-05-04T12:32:59.962Z,4.93
2023-05-04T12:35:27.607Z,3.88
2023-05-04T12:37:55.252Z,4.00
2023-05-04T12:40:28.723Z,5.53
2023-05-04T12:42:56.717Z,7.07
2023-05-04T12:45:24.269Z,8.82
2023-05-04T12:47:51.920Z,6.20
2023-05-04T12:50:19.458Z,4.60
2023-05-04T12:52:47.089Z,5.25
2023-05-04T12:55:14.754Z,7.80
2023-05-04T12:57:44.811Z,5.35
2023-05-04T13:00:12.902Z,6.22
2023-05-04T13:02:40.617Z,5.75
2023-05-04T13:05:09.067Z,5.50
2023-05-04T13:07:36.729Z,4.15
2023-05-04T13:10:04.327Z,5.30
2023-05-04T13:12:31.854Z,6.07
2023-05-04T13:15:00.256Z,5.72
2023-05-04T13:17:29.528Z,4.90
2023-05-04T13:19:57.204Z,6.25
2023-05-04T13:22:24.780Z,5.07
2023-05-04T13:24:52.264Z,6.90
2023-05-04T13:27:19.800Z,8.00
2023-05-04T13:29:47.300Z,8.85
2023-05-04T13:32:14.873Z,7.53
2023-05-04T13:34:43.477Z,7.50
2023-05-04T13:37:16.539Z,7.18
2023-05-04T13:39:44.233Z,8.13
2023-05-04T13:42:12.530Z,5.50
2023-05-04T13:44:45.349Z,7.63
2023-05-04T13:47:13.369Z,6.85
2023-05-04T13:49:41.021Z,8.05
2023-05-04T13:52:08.835Z,8.80
2023-05-04T13:54:37.126Z,6.90
2023-05-04T13:57:04.719Z,7.80
2023-05-04T13:59:32.319Z,7.32
2023-05-04T14:02:00.045Z,7.20
2023-05-04T14:04:27.636Z,6.90
2023-05-04T14:06:55.842Z,6.50
2023-05-04T14:09:23.723Z,7.15
2023-05-04T14:11:51.530Z,7.45
2023-05-04T14:14:19.026Z,8.50
2023-05-04T14:16:47.458Z,8.68
2023-05-04T14:19:15.013Z,8.98
2023-05-04T14:21:42.591Z,5.35
2023-05-04T14:24:10.296Z,7.00
2023-05-04T14:26:37.989Z,6.85
2023-05-04T14:29:05.508Z,6.38
2023-05-04T14:31:33.056Z,11.32
2023-05-04T14:34:00.667Z,6.22
2023-05-04T14:36:28.212Z,6.40
2023-05-04T14:38:56.014Z,7.47
2023-05-04T14:41:23.626Z,7.93
2023-05-04T14:43:51.286Z,7.32
2023-05-04T14:46:18.862Z,9.65
2023-05-04T14:48:46.410Z,12.27
2023-05-04T14:51:14.013Z,7.57
2023-05-04T14:53:42.070Z,6.55
2023-05-04T14:56:09.605Z,5.75
2023-05-04T14:58:37.118Z,7.97
2023-05-04T15:01:04.705Z,5.07
2023-05-04T15:03:32.619Z,6.20
2023-05-04T15:06:00.696Z,9.20
2023-05-04T15:08:28.231Z,7.88
2023-05-04T15:10:59.038Z,7.63
2023-05-04T15:13:26.871Z,4.40
2023-05-04T15:15:54.499Z,4.65
2023-05-04T15:18:23.860Z,6.43
2023-05-04T15:20:51.453Z,5.60
2023-05-04T15:23:19.005Z,7.00
2023-05-04T15:25:46.657Z,7.65
2023-05-04T15:28:14.233Z,8.00
2023-05-04T15:30:42.374Z,6.93
2023-05-04T15:33:10.072Z,6.80
2023-05-04T15:35:38.733Z,7.68
2023-05-04T15:38:06.290Z,6.15
2023-05-04T15:40:34.252Z,5.93
2023-05-04T15:43:01.795Z,8.23
2023-05-04T15:45:29.375Z,5.15
2023-05-04T15:47:59.350Z,7.15
2023-05-04T15:50:27.111Z,5.85
2023-05-04T15:52:54.691Z,6.75
2023-05-04T15:55:25.511Z,5.85
2023-05-04T15:57:54.161Z,5.65
2023-05-04T16:00:22.100Z,7.72
2023-05-04T16:02:49.687Z,7.93
2023-05-04T16:05:17.428Z,6.75
2023-05-04T16:07:45.168Z,6.72
2023-05-04T16:10:12.957Z,7.15
2023-05-04T16:12:40.912Z,5.90
2023-05-04T16:15:08.609Z,5.55
2023-05-04T16:17:36.221Z,6.00
2023-05-04T16:20:04.690Z,6.32
2023-05-04T16:22:32.701Z,8.75
2023-05-04T16:25:01.255Z,5.95
2023-05-04T16:27:28.933Z,8.95
2023-05-04T16:29:56.751Z,7.80
2023-05-04T16:32:24.481Z,6.53
2023-05-04T16:34:52.610Z,10.43
2023-05-04T16:37:20.500Z,5.78
2023-05-04T16:39:48.150Z,7.53
2023-05-04T16:42:15.677Z,8.30
2023-05-04T16:44:43.419Z,6.05
2023-05-04T16:47:10.975Z,8.55
2023-05-04T16:49:38.562Z,6.57
2023-05-04T16:52:06.366Z,6.07
2023-05-04T16:54:34.115Z,5.00
2023-05-04T16:57:02.013Z,5.95
2023-05-04T16:59:29.523Z,8.60
2023-05-04T17:01:59.039Z,7.32
2023-05-04T17:04:28.932Z,6.57
2023-05-04T17:06:56.534Z,4.63
2023-05-04T17:09:24.149Z,6.85
2023-05-04T17:11:51.819Z,6.05
2023-05-04T17:14:19.439Z,5.97
2023-05-04T17:16:47.070Z,7.45
2023-05-04T17:19:14.617Z,5.70
2023-05-04T17:21:42.215Z,5.72
2023-05-04T17:24:09.767Z,5.95
2023-05-04T17:26:37.299Z,5.90
2023-05-04T17:29:05.078Z,7.18
2023-05-04T17:31:32.671Z,4.82
2023-05-04T17:34:00.401Z,4.80
2023-05-04T17:36:28.329Z,5.95
2023-05-04T17:38:56.003Z,5.63
2023-05-04T17:41:25.029Z,6.80
2023-05-04T17:43:54.006Z,5.25
2023-05-04T17:46:21.884Z,7.57
2023-05-04T17:48:50.003Z,4.85
2023-05-04T17:51:17.556Z,7.30
2023-05-04T17:53:45.693Z,6.95
2023-05-04T17:56:13.314Z,4.45
2023-05-04T17:58:40.865Z,4.57
2023-05-04T18:01:08.456Z,6.07
2023-05-04T18:03:50.714Z,4.85
2023-05-04T18:06:21.378Z,6.53
2023-05-04T18:08:48.891Z,8.20
2023-05-04T18:11:16.712Z,8.43
2023-05-04T18:13:44.239Z,7.20
2023-05-04T18:16:11.990Z,4.90
2023-05-04T18:18:40.507Z,5.20
2023-05-04T18:21:08.124Z,5.88
2023-05-04T18:23:35.946Z,6.50
2023-05-04T18:26:03.930Z,5.55
2023-05-04T18:28:32.069Z,7.20
2023-05-04T18:30:59.614Z,4.57
2023-05-04T18:33:27.320Z,5.38
2023-05-04T18:35:54.831Z,6.60
2023-05-04T18:38:22.438Z,3.83
2023-05-04T18:40:52.929Z,7.43
2023-05-04T18:43:20.460Z,4.78
2023-05-04T18:45:48.008Z,5.75
2023-05-04T18:48:15.978Z,6.10
2023-05-04T18:50:50.893Z,6.80
2023-05-04T18:53:18.417Z,6.03
2023-05-04T18:55:45.938Z,8.95
2023-05-04T18:58:13.487Z,7.13
2023-05-04T19:00:42.268Z,5.80
2023-05-04T19:03:09.863Z,8.93
2023-05-04T19:05:37.416Z,4.57
2023-05-04T19:08:04.974Z,8.10
2023-05-04T19:10:32.464Z,5.85
2023-05-04T19:13:01.163Z,6.50
2023-05-04T19:15:28.963Z,7.50
2023-05-04T19:17:56.835Z,5.53
2023-05-04T19:20:24.377Z,4.78
2023-05-04T19:22:51.871Z,5.15
2023-05-04T19:25:27.368Z,7.72
2023-05-04T19:28:07.752Z,7.65
2023-05-04T19:30:36.679Z,4.82
2023-05-04T19:33:04.551Z,7.13
2023-05-04T19:35:32.222Z,6.00
2023-05-04T19:38:01.326Z,4.95
2023-05-04T19:40:28.887Z,6.75
2023-05-04T19:42:56.445Z,6.22
2023-05-04T19:45:24.104Z,6.88
2023-05-04T19:47:52.786Z,5.63
2023-05-04T19:50:20.898Z,4.43
2023-05-04T19:52:48.553Z,4.20
2023-05-04T19:55:16.695Z,8.07
2023-05-04T19:57:44.672Z,8.13
2023-05-04T20:00:13.101Z,5.40
2023-05-04T20:02:40.870Z,6.68
2023-05-04T20:05:08.719Z,6.75
2023-05-04T20:07:36.331Z,4.40
2023-05-04T20:10:04.093Z,5.22
2023-05-04T20:12:31.692Z,8.27
2023-05-04T20:14:59.337Z,5.30
2023-05-04T20:17:27.461Z,4.70
2023-05-04T20:19:55.097Z,5.70
2023-05-04T20:22:22.674Z,6.68
2023-05-04T20:24:50.326Z,4.70
2023-05-04T20:27:18.016Z,6.68
2023-05-04T20:29:45.565Z,5.60
2023-05-04T20:32:13.152Z,6.47
2023-05-04T20:34:42.903Z,5.72
2023-05-04T20:37:10.478Z,4.50
2023-05-04T20:39:38.022Z,5.88
2023-05-04T20:42:05.627Z,6.95
2023-05-04T20:44:34.271Z,5.00
2023-05-04T20:47:02.388Z,5.15
2023-05-04T20:49:29.899Z,4.88
2023-05-04T20:51:57.796Z,5.78
2023-05-04T20:54:25.361Z,4.60
2023-05-04T20:56:52.948Z,6.80
2023-05-04T20:59:20.601Z,6.20
2023-05-04T21:01:48.136Z,4.63
2023-05-04T21:04:15.802Z,5.22
2023-05-04T21:06:44.024Z,3.22
2023-05-04T21:09:12.844Z,5.75
2023-05-04T21:11:40.672Z,5.07
2023-05-04T21:14:08.184Z,7.05
2023-05-04T21:16:35.848Z,5.32
2023-05-04T21:19:03.400Z,7.18
2023-05-04T21:21:32.450Z,5.32
2023-05-04T21:24:00.001Z,4.80
2023-05-04T21:26:27.503Z,6.15
2023-05-04T21:28:55.051Z,6.25
2023-05-04T21:31:22.638Z,5.38
2023-05-04T21:33:51.599Z,7.50
2023-05-04T21:36:19.167Z,5.20
2023-05-04T21:38:46.981Z,8.13
2023-05-04T21:41:15.191Z,5.70
2023-05-04T21:43:43.080Z,8.15
2023-05-04T21:46:12.011Z,6.93
2023-05-04T21:48:39.672Z,4.85
2023-05-04T21:51:07.436Z,7.00
2023-05-04T21:53:35.048Z,6.65
2023-05-04T21:56:06.394Z,7.82
2023-05-04T21:58:34.063Z,6.43
2023-05-04T22:01:01.602Z,7.22
2023-05-04T22:03:29.802Z,9.10
2023-05-04T22:05:57.848Z,4.93
2023-05-04T22:08:26.006Z,5.20
2023-05-04T22:10:54.405Z,8.02
2023-05-04T22:13:22.344Z,8.95
2023-05-04T22:15:50.784Z,7.95
2023-05-04T22:18:18.749Z,7.13
2023-05-04T22:20:46.535Z,7.07
2023-05-04T22:23:14.565Z,8.73
2023-05-04T22:25:42.306Z,7.05
2023-05-04T22:28:09.863Z,6.93
2023-05-04T22:30:37.585Z,8.05
2023-05-04T22:33:05.233Z,4.45
2023-05-04T22:35:32.866Z,7.22
2023-05-04T22:38:00.452Z,6.55
2023-05-04T22:40:28.223Z,7.25
2023-05-04T22:42:55.742Z,5.72
2023-05-04T22:45:23.349Z,5.53
2023-05-04T22:47:51.836Z,5.20
2023-05-04T22:50:19.671Z,5.30
2023-05-04T22:52:47.348Z,6.20
2023-05-04T22:55:15.121Z,7.57
2023-05-04T22:57:42.612Z,6.40
2023-05-04T23:00:10.638Z,6.22
2023-05-04T23:02:38.522Z,14.52
2023-05-04T23:05:06.817Z,7.60
2023-05-04T23:07:34.339Z,7.18
2023-05-04T23:10:02.172Z,6.00
2023-05-04T23:12:29.888Z,8.85
2023-05-04T23:14:57.696Z,5.43
2023-05-04T23:17:25.394Z,7.18
2023-05-04T23:19:52.991Z,7.53
2023-05-04T23:22:20.514Z,7.07
2023-05-04T23:24:48.087Z,6.70
2023-05-04T23:27:15.627Z,6.07
2023-05-04T23:29:43.132Z,5.43
2023-05-04T23:32:10.993Z,7.53
2023-05-04T23:34:38.666Z,5.18
2023-05-04T23:37:06.356Z,8.43
2023-05-04T23:39:34.531Z,5.80
2023-05-04T23:42:02.097Z,4.93
2023-05-04T23:44:29.627Z,7.65
2023-05-04T23:46:57.148Z,8.90
2023-05-04T23:49:24.668Z,9.88
2023-05-04T23:51:52.899Z,6.75
2023-05-04T23:54:20.467Z,4.80
2023-05-04T23:56:47.981Z,7.95
2023-05-04T23:59:15.798Z,5.47
